Time;durP1;ratioP1;P1;durP2;ratioP2;P2;SDS_P1;SDS_P2;PMS_P1;PMS_P2;Temp;Humidity;BMP_temperature;BMP_pressure;BME280_temperature;BME280_humidity;BME280_pressure;Samples;Min_cycle;Max_cycle;Signal;HPM_P1;HPM_P2
2023/11/02 00:01:03;;;;;;;49.20;46.70;;;;;;;;;;5066955;28;20595;-66
2023/11/02 00:03:33;;;;;;;44.80;42.43;;;;;;;;;;5067511;28;20043;-65
2023/11/02 00:06:09;;;;;;;49.70;47.20;;;;;;;;;;5066771;28;21058;-64
2023/11/02 00:08:36;;;;;;;47.75;45.35;;;;;;;;;;5060968;28;20493;-67
2023/11/02 00:11:03;;;;;;;44.35;42.05;;;;;;;;;;5066409;28;20025;-66
2023/11/02 00:13:29;;;;;;;42.28;40.10;;;;;;;;;;5062571;28;20036;-63
2023/11/02 00:15:55;;;;;;;48.60;46.13;;;;;;;;;;5066497;28;20040;-67
2023/11/02 00:18:22;;;;;;;41.38;39.28;;;;;;;;;;5064747;28;20029;-63
2023/11/02 00:20:54;;;;;;;45.08;42.78;;;;;;;;;;5064601;28;20365;-67
2023/11/02 00:23:39;;;;;;;43.33;41.13;;;;;;;;;;5060609;28;20043;-67
2023/11/02 00:26:05;;;;;;;44.05;41.75;;;;;;;;;;5066167;28;20048;-67
2023/11/02 00:28:31;;;;;;;45.17;42.88;;;;;;;;;;5065954;28;20047;-67
2023/11/02 00:30:58;;;;;;;47.67;45.28;;;;;;;;;;5069270;28;20528;-64
2023/11/02 00:33:24;;;;;;;47.42;45.03;;;;;;;;;;5067119;28;20029;-64
2023/11/02 00:35:53;;;;;;;50.97;48.38;;;;;;;;;;5068279;28;20028;-64
2023/11/02 00:38:20;;;;;;;43.78;41.58;;;;;;;;;;5066795;28;20040;-64
2023/11/02 00:40:46;;;;;;;42.17;40.03;;;;;;;;;;5070607;28;20054;-66
2023/11/02 00:43:12;;;;;;;41.10;39.00;;;;;;;;;;5069952;28;20042;-67
2023/11/02 00:45:43;;;;;;;46.42;44.10;;;;;;;;;;5068559;28;20294;-66
2023/11/02 00:48:14;;;;;;;;;;;;;;;;;;5068874;28;20058;-67
2023/11/02 00:51:17;;;;;;;33.45;31.73;;;;;;;;;;5065002;28;19916;-67
2023/11/02 00:53:45;;;;;;;33.15;31.40;;;;;;;;;;5065208;28;20043;-67
2023/11/02 00:56:12;;;;;;;34.55;32.75;;;;;;;;;;5066763;28;20088;-64
2023/11/02 00:58:44;;;;;;;36.00;34.15;;;;;;;;;;5067187;28;20032;-67
2023/11/02 01:01:17;;;;;;;32.33;30.63;;;;;;;;;;5067918;28;20043;-66
2023/11/02 01:03:55;;;;;;;32.00;30.35;;;;;;;;;;5066663;28;20044;-66
2023/11/02 01:06:28;;;;;;;30.85;29.25;;;;;;;;;;5068525;28;20128;-66
2023/11/02 01:09:03;;;;;;;30.55;28.95;;;;;;;;;;5066862;28;20033;-65
2023/11/02 01:11:31;;;;;;;28.70;27.20;;;;;;;;;;5064774;28;20054;-63
2023/11/02 01:13:57;;;;;;;28.60;27.10;;;;;;;;;;5067547;28;20063;-63
2023/11/02 01:16:23;;;;;;;28.20;26.75;;;;;;;;;;5068361;28;20060;-63
2023/11/02 01:18:49;;;;;;;28.70;27.20;;;;;;;;;;5066949;28;20468;-63
2023/11/02 01:21:15;;;;;;;27.23;25.83;;;;;;;;;;5065547;28;20033;-63
2023/11/02 01:23:41;;;;;;;29.63;28.13;;;;;;;;;;5064899;28;20028;-63
2023/11/02 01:26:45;;;;;;;27.77;26.27;;;;;;;;;;5069960;28;20062;-63
2023/11/02 01:29:11;;;;;;;26.08;24.67;;;;;;;;;;5072648;28;20032;-65
2023/11/02 01:31:36;;;;;;;24.10;22.80;;;;;;;;;;5069533;28;20036;-66
2023/11/02 01:34:03;;;;;;;25.25;23.92;;;;;;;;;;5067936;28;20431;-66
2023/11/02 01:36:30;;;;;;;24.90;23.60;;;;;;;;;;5070688;28;20111;-66
2023/11/02 01:39:01;;;;;;;23.83;22.52;;;;;;;;;;5068147;28;20742;-63
2023/11/02 01:41:38;;;;;;;24.20;22.90;;;;;;;;;;5068886;28;20042;-63
2023/11/02 01:44:04;;;;;;;25.17;23.88;;;;;;;;;;5071614;28;20032;-63
2023/11/02 01:47:07;;;;;;;24.45;23.15;;;;;;;;;;5069268;28;20040;-66
2023/11/02 01:49:52;;;;;;;26.80;25.40;;;;;;;;;;5069484;28;20039;-66
2023/11/02 01:52:56;;;;;;;24.20;22.90;;;;;;;;;;5067269;28;20039;-66
2023/11/02 01:55:52;;;;;;;24.23;22.90;;;;;;;;;;5068804;28;20036;-63
2023/11/02 01:58:27;;;;;;;23.45;22.23;;;;;;;;;;5061944;28;20032;-66
2023/11/02 02:01:13;;;;;;;23.85;22.55;;;;;;;;;;5067898;28;20177;-66
2023/11/02 02:04:02;;;;;;;24.55;23.25;;;;;;;;;;5067068;28;20029;-67
2023/11/02 02:06:36;;;;;;;24.15;22.88;;;;;;;;;;5065391;28;20076;-66
2023/11/02 02:09:20;;;;;;;23.95;22.65;;;;;;;;;;5065124;28;20032;-66
2023/11/02 02:11:57;;;;;;;25.52;24.13;;;;;;;;;;5066539;28;20058;-63
2023/11/02 02:14:42;;;;;;;25.98;24.58;;;;;;;;;;5069707;28;20060;-63
2023/11/02 02:17:32;;;;;;;24.63;23.27;;;;;;;;;;5062870;28;20064;-63
2023/11/02 02:20:16;;;;;;;23.98;22.67;;;;;;;;;;5069404;28;20032;-66
2023/11/02 02:23:15;;;;;;;24.60;23.30;;;;;;;;;;5062477;28;20028;-66
2023/11/02 02:25:52;;;;;;;25.23;23.92;;;;;;;;;;5065285;28;20039;-63
2023/11/02 02:28:29;;;;;;;25.25;23.50;;;;;;;;;;5065390;28;20032;-66
2023/11/02 02:31:08;;;;;;;27.02;25.60;;;;;;;;;;5065677;28;20479;-67
2023/11/02 02:33:50;;;;;;;28.33;26.83;;;;;;;;;;5067097;28;20521;-64
2023/11/02 02:36:22;;;;;;;28.30;26.80;;;;;;;;;;5062831;28;20068;-67
2023/11/02 02:38:52;;;;;;;29.42;27.90;;;;;;;;;;5064030;28;20273;-66
2023/11/02 02:41:21;;;;;;;28.90;27.40;;;;;;;;;;5065332;28;20036;-63
2023/11/02 02:43:51;;;;;;;33.15;31.35;;;;;;;;;;5064979;28;20114;-66
2023/11/02 02:46:18;;;;;;;34.47;32.67;;;;;;;;;;5067341;28;20378;-66
2023/11/02 02:48:45;;;;;;;37.10;35.17;;;;;;;;;;5064346;28;20046;-66
2023/11/02 02:51:12;;;;;;;40.88;38.78;;;;;;;;;;5064441;28;20334;-63
2023/11/02 02:53:39;;;;;;;41.15;39.05;;;;;;;;;;5062603;28;20056;-66
2023/11/02 02:56:06;;;;;;;43.38;41.17;;;;;;;;;;5065805;28;20021;-63
2023/11/02 02:58:44;;;;;;;42.00;39.38;;;;;;;;;;5063964;28;20033;-63
2023/11/02 03:01:12;;;;;;;44.22;41.97;;;;;;;;;;5063898;28;20128;-66
2023/11/02 03:03:40;;;;;;;43.90;41.67;;;;;;;;;;5063649;28;20085;-63
2023/11/02 03:06:07;;;;;;;42.78;40.58;;;;;;;;;;5070231;28;20028;-63
2023/11/02 03:08:35;;;;;;;43.70;41.45;;;;;;;;;;5064308;28;20121;-63
2023/11/02 03:11:02;;;;;;;40.72;38.63;;;;;;;;;;5071155;28;20043;-63
2023/11/02 03:13:29;;;;;;;39.08;37.08;;;;;;;;;;5066269;28;20036;-63
2023/11/02 03:16:00;;;;;;;37.55;35.63;;;;;;;;;;5063586;28;20040;-63
2023/11/02 03:18:33;;;;;;;38.97;36.97;;;;;;;;;;5067219;28;20029;-66
2023/11/02 03:20:58;;;;;;;39.72;37.72;;;;;;;;;;5067906;28;20032;-67
2023/11/02 03:23:38;;;;;;;35.75;33.90;;;;;;;;;;5064025;28;20028;-63
2023/11/02 03:26:15;;;;;;;35.53;33.72;;;;;;;;;;5065443;28;20421;-63
2023/11/02 03:28:50;;;;;;;37.55;35.65;;;;;;;;;;5064122;28;20040;-66
2023/11/02 03:31:30;;;;;;;30.90;29.30;;;;;;;;;;5064402;28;20032;-66
2023/11/02 03:34:21;;;;;;;32.83;31.13;;;;;;;;;;5064005;28;20420;-66
2023/11/02 03:37:10;;;;;;;32.72;31.02;;;;;;;;;;5049096;28;20381;-62
2023/11/02 03:39:51;;;;;;;29.58;28.08;;;;;;;;;;5066753;28;20036;-67
2023/11/02 03:42:30;;;;;;;30.08;28.48;;;;;;;;;;5066748;28;20122;-66
2023/11/02 03:45:23;;;;;;;29.25;27.75;;;;;;;;;;5064207;28;20075;-66
2023/11/02 03:47:59;;;;;;;28.73;27.13;;;;;;;;;;5067768;28;20063;-66
2023/11/02 03:50:39;;;;;;;28.48;26.98;;;;;;;;;;5064879;28;20485;-65
2023/11/02 03:53:19;;;;;;;25.10;23.77;;;;;;;;;;5065470;28;20034;-66
2023/11/02 03:56:10;;;;;;;24.50;23.20;;;;;;;;;;5064408;28;20098;-64
2023/11/02 03:59:06;;;;;;;23.90;22.60;;;;;;;;;;5066939;28;20097;-66
2023/11/02 04:01:45;;;;;;;24.98;23.67;;;;;;;;;;5064727;28;20065;-66
2023/11/02 04:04:22;;;;;;;24.60;23.30;;;;;;;;;;5066147;28;20047;-66
2023/11/02 04:06:57;;;;;;;24.33;23.02;;;;;;;;;;5062667;28;20089;-63
2023/11/02 04:09:27;;;;;;;24.13;22.83;;;;;;;;;;5063439;28;20032;-63
2023/11/02 04:12:04;;;;;;;21.80;20.60;;;;;;;;;;5065367;28;20047;-63
2023/11/02 04:14:33;;;;;;;24.13;22.83;;;;;;;;;;5065514;28;20040;-63
2023/11/02 04:16:58;;;;;;;20.05;18.90;;;;;;;;;;5064140;28;20055;-63
2023/11/02 04:19:24;;;;;;;21.45;20.30;;;;;;;;;;5061312;28;20033;-66
2023/11/02 04:21:49;;;;;;;20.85;19.75;;;;;;;;;;5064088;28;20529;-63
2023/11/02 04:24:15;;;;;;;18.63;17.60;;;;;;;;;;5065212;28;20521;-63
2023/11/02 04:26:41;;;;;;;19.95;18.85;;;;;;;;;;5063524;28;20035;-63
2023/11/02 04:29:06;;;;;;;18.85;17.85;;;;;;;;;;5064847;28;20031;-66
2023/11/02 04:31:32;;;;;;;20.20;19.05;;;;;;;;;;5063156;28;20040;-67
2023/11/02 04:33:57;;;;;;;19.00;18.00;;;;;;;;;;5064012;28;20048;-66
2023/11/02 04:36:22;;;;;;;18.10;17.10;;;;;;;;;;5064959;28;20844;-67
2023/11/02 04:38:52;;;;;;;20.48;19.38;;;;;;;;;;5064198;28;20036;-63
2023/11/02 04:41:20;;;;;;;17.60;16.63;;;;;;;;;;5065529;28;20111;-63
2023/11/02 04:43:46;;;;;;;17.63;16.63;;;;;;;;;;5063892;28;20059;-63
2023/11/02 04:46:11;;;;;;;22.92;21.73;;;;;;;;;;5063833;28;20041;-64
2023/11/02 04:48:37;;;;;;;23.45;22.25;;;;;;;;;;5062168;28;20032;-64
2023/11/02 04:51:02;;;;;;;23.20;22.00;;;;;;;;;;5064150;28;20477;-64
2023/11/02 04:53:28;;;;;;;22.92;21.73;;;;;;;;;;5064451;28;20048;-68
2023/11/02 04:55:53;;;;;;;24.77;23.48;;;;;;;;;;5061113;28;20029;-67
2023/11/02 04:58:19;;;;;;;23.15;21.85;;;;;;;;;;5062886;28;20059;-64
2023/11/02 05:00:45;;;;;;;23.00;21.80;;;;;;;;;;5064280;28;20119;-64
2023/11/02 05:03:10;;;;;;;22.35;20.85;;;;;;;;;;5061963;28;20065;-65
2023/11/02 05:05:36;;;;;;;24.83;23.52;;;;;;;;;;5067092;28;20041;-64
2023/11/02 05:08:01;;;;;;;25.38;23.98;;;;;;;;;;5062273;28;20371;-68
2023/11/02 05:10:26;;;;;;;25.30;24.00;;;;;;;;;;5063625;28;20099;-68
2023/11/02 05:12:52;;;;;;;29.20;27.70;;;;;;;;;;5064393;28;20103;-64
2023/11/02 05:15:17;;;;;;;37.30;35.38;;;;;;;;;;5062837;28;20070;-63
2023/11/02 05:17:42;;;;;;;38.70;36.72;;;;;;;;;;5072029;28;20023;-68
2023/11/02 05:20:08;;;;;;;42.83;40.63;;;;;;;;;;5068740;28;20176;-68
2023/11/02 05:22:33;;;;;;;45.65;43.28;;;;;;;;;;5068414;28;20036;-63
2023/11/02 05:24:59;;;;;;;44.10;41.88;;;;;;;;;;5067126;28;20028;-63
2023/11/02 05:27:25;;;;;;;42.88;40.67;;;;;;;;;;5065245;28;20063;-63
2023/11/02 05:29:50;;;;;;;46.58;44.20;;;;;;;;;;5070327;28;20039;-67
2023/11/02 05:32:17;;;;;;;45.80;43.30;;;;;;;;;;5066470;28;20110;-66
2023/11/02 05:34:43;;;;;;;46.22;43.92;;;;;;;;;;5067283;28;20453;-63
2023/11/02 05:37:08;;;;;;;47.33;44.92;;;;;;;;;;5068704;28;20227;-62
2023/11/02 05:39:33;;;;;;;43.50;41.30;;;;;;;;;;5066641;28;20103;-63
2023/11/02 05:41:59;;;;;;;48.95;46.45;;;;;;;;;;5067825;28;20102;-63
2023/11/02 05:44:24;;;;;;;43.80;41.60;;;;;;;;;;5066264;28;20093;-62
2023/11/02 05:46:49;;;;;;;45.15;42.85;;;;;;;;;;5066930;28;20037;-63
2023/11/02 05:49:15;;;;;;;42.33;40.17;;;;;;;;;;5067615;28;20032;-65
2023/11/02 05:51:40;;;;;;;41.92;39.83;;;;;;;;;;5068044;28;20028;-66
2023/11/02 05:54:06;;;;;;;40.83;38.72;;;;;;;;;;5064270;28;20039;-62
2023/11/02 05:56:31;;;;;;;40.70;38.50;;;;;;;;;;5067369;28;20032;-62
2023/11/02 05:58:57;;;;;;;40.55;38.47;;;;;;;;;;5064328;28;20090;-66
2023/11/02 06:01:24;;;;;;;42.20;40.03;;;;;;;;;;5066702;28;20032;-65
2023/11/02 06:03:50;;;;;;;39.95;37.92;;;;;;;;;;5065426;28;20032;-65
2023/11/02 06:06:15;;;;;;;38.65;36.67;;;;;;;;;;5068840;28;20100;-62
2023/11/02 06:08:41;;;;;;;37.05;35.17;;;;;;;;;;5067345;28;20043;-66
2023/11/02 06:11:06;;;;;;;34.85;33.05;;;;;;;;;;5066421;28;20336;-67
2023/11/02 06:13:33;;;;;;;33.50;31.75;;;;;;;;;;5066381;28;20397;-62
2023/11/02 06:15:58;;;;;;;31.92;30.23;;;;;;;;;;5066441;28;20462;-61
2023/11/02 06:18:26;;;;;;;31.23;29.58;;;;;;;;;;5069732;28;20104;-61
2023/11/02 06:20:52;;;;;;;30.58;28.98;;;;;;;;;;5065642;28;20073;-65
2023/11/02 06:23:17;;;;;;;31.73;30.02;;;;;;;;;;5062972;28;20405;-66
2023/11/02 06:25:44;;;;;;;29.10;27.60;;;;;;;;;;5061898;28;20041;-66
2023/11/02 06:28:09;;;;;;;30.90;29.30;;;;;;;;;;5062202;28;20138;-66
2023/11/02 06:30:35;;;;;;;29.17;27.63;;;;;;;;;;5063877;28;20033;-67
2023/11/02 06:33:03;;;;;;;28.98;27.40;;;;;;;;;;5064232;28;20602;-67
2023/11/02 06:35:29;;;;;;;30.42;28.63;;;;;;;;;;5063888;28;20098;-61
2023/11/02 06:37:58;;;;;;;28.70;27.13;;;;;;;;;;5063433;28;20108;-61
2023/11/02 06:40:24;;;;;;;26.08;24.70;;;;;;;;;;5066360;28;20501;-66
2023/11/02 06:42:50;;;;;;;27.83;26.35;;;;;;;;;;5066548;28;20124;-67
2023/11/02 06:45:18;;;;;;;28.25;26.77;;;;;;;;;;5065302;28;20489;-61
2023/11/02 06:47:47;;;;;;;28.65;27.05;;;;;;;;;;5063579;28;20066;-66
2023/11/02 06:50:12;;;;;;;27.67;26.17;;;;;;;;;;5061927;28;20513;-67
2023/11/02 06:52:38;;;;;;;28.17;26.42;;;;;;;;;;5061398;28;20033;-61
2023/11/02 06:55:03;;;;;;;28.60;27.05;;;;;;;;;;5066701;28;20063;-66
2023/11/02 06:57:29;;;;;;;26.10;24.70;;;;;;;;;;5064356;28;20028;-67
2023/11/02 06:59:54;;;;;;;27.17;25.65;;;;;;;;;;5067639;28;20024;-66
2023/11/02 07:02:22;;;;;;;25.08;23.77;;;;;;;;;;5065872;28;20041;-67
2023/11/02 07:04:48;;;;;;;27.05;25.65;;;;;;;;;;5067620;28;20033;-60
2023/11/02 07:07:14;;;;;;;27.33;25.92;;;;;;;;;;5066453;28;20451;-61
2023/11/02 07:09:40;;;;;;;24.38;23.08;;;;;;;;;;5066086;28;20040;-61
2023/11/02 07:12:05;;;;;;;24.75;23.08;;;;;;;;;;5061831;28;20060;-61
2023/11/02 07:14:31;;;;;;;22.15;20.95;;;;;;;;;;5066349;28;20825;-61
2023/11/02 07:16:56;;;;;;;21.80;20.60;;;;;;;;;;5063203;28;20059;-61
2023/11/02 07:19:21;;;;;;;21.33;20.23;;;;;;;;;;5057493;28;20529;-61
2023/11/02 07:21:47;;;;;;;22.67;21.48;;;;;;;;;;5066942;28;20044;-61
2023/11/02 07:24:12;;;;;;;22.25;21.05;;;;;;;;;;5062189;28;20143;-61
2023/11/02 07:26:38;;;;;;;22.38;21.08;;;;;;;;;;5065145;28;20028;-61
2023/11/02 07:29:03;;;;;;;20.40;19.30;;;;;;;;;;5063856;28;20428;-61
2023/11/02 07:31:29;;;;;;;21.77;20.58;;;;;;;;;;5064531;28;20039;-61
2023/11/02 07:33:54;;;;;;;22.63;21.42;;;;;;;;;;5061952;28;20037;-62
2023/11/02 07:36:20;;;;;;;22.90;21.70;;;;;;;;;;5061849;28;20028;-62
2023/11/02 07:38:45;;;;;;;21.23;20.13;;;;;;;;;;5063812;28;20024;-62
2023/11/02 07:41:11;;;;;;;23.05;21.75;;;;;;;;;;5059673;28;20032;-62
2023/11/02 07:43:36;;;;;;;23.25;21.95;;;;;;;;;;5064673;28;20028;-62
2023/11/02 07:46:02;;;;;;;26.42;25.02;;;;;;;;;;5060629;28;20036;-62
2023/11/02 07:48:27;;;;;;;23.80;22.50;;;;;;;;;;5062952;28;20063;-61
2023/11/02 07:50:53;;;;;;;22.42;21.23;;;;;;;;;;5061714;28;20024;-61
2023/11/02 07:53:22;;;;;;;22.90;21.60;;;;;;;;;;5064445;28;20032;-61
2023/11/02 07:55:48;;;;;;;22.08;20.88;;;;;;;;;;5062613;28;20033;-62
2023/11/02 07:58:14;;;;;;;22.75;21.55;;;;;;;;;;5061375;28;20676;-62
2023/11/02 08:00:39;;;;;;;20.88;19.77;;;;;;;;;;5059194;28;20051;-62
2023/11/02 08:03:05;;;;;;;21.02;19.90;;;;;;;;;;5062596;28;20051;-62
2023/11/02 08:05:31;;;;;;;19.92;18.83;;;;;;;;;;5064193;28;20039;-62
2023/11/02 08:07:56;;;;;;;20.60;19.50;;;;;;;;;;5060278;28;20028;-68
2023/11/02 08:10:21;;;;;;;19.77;18.67;;;;;;;;;;5060421;28;20094;-68
2023/11/02 08:12:47;;;;;;;21.88;20.67;;;;;;;;;;5065065;28;20369;-68
2023/11/02 08:15:12;;;;;;;19.30;18.23;;;;;;;;;;5062229;28;20160;-62
2023/11/02 08:17:40;;;;;;;20.65;19.55;;;;;;;;;;5066545;28;20024;-61
2023/11/02 08:20:07;;;;;;;21.83;20.63;;;;;;;;;;5063222;28;20029;-61
2023/11/02 08:22:32;;;;;;;21.00;19.85;;;;;;;;;;5060898;28;20123;-62
2023/11/02 08:24:58;;;;;;;21.70;20.50;;;;;;;;;;5064593;28;20112;-61
2023/11/02 08:27:23;;;;;;;20.73;19.63;;;;;;;;;;5064221;28;20025;-60
2023/11/02 08:29:49;;;;;;;21.65;20.45;;;;;;;;;;5065217;28;20048;-67
2023/11/02 08:32:15;;;;;;;21.27;20.13;;;;;;;;;;5064004;28;20033;-61
2023/11/02 08:34:41;;;;;;;22.83;21.63;;;;;;;;;;5067165;28;20047;-61
2023/11/02 08:37:08;;;;;;;23.70;22.45;;;;;;;;;;5055607;28;20071;-62
2023/11/02 08:39:35;;;;;;;26.27;24.88;;;;;;;;;;5067947;28;20080;-62
2023/11/02 08:42:02;;;;;;;25.70;24.35;;;;;;;;;;5065507;28;20405;-61
2023/11/02 08:44:27;;;;;;;26.23;24.83;;;;;;;;;;5069786;28;20087;-62
2023/11/02 08:46:53;;;;;;;24.75;23.45;;;;;;;;;;5067442;28;20486;-67
2023/11/02 08:49:20;;;;;;;25.95;24.55;;;;;;;;;;5064080;28;20426;-67
2023/11/02 08:51:46;;;;;;;28.85;27.35;;;;;;;;;;5068432;28;20067;-62
2023/11/02 08:54:11;;;;;;;33.22;31.52;;;;;;;;;;5066810;28;20091;-67
2023/11/02 08:56:36;;;;;;;37.85;35.92;;;;;;;;;;5069601;28;20066;-62
2023/11/02 08:59:02;;;;;;;43.15;40.95;;;;;;;;;;5067393;28;20071;-61
2023/11/02 09:01:28;;;;;;;42.83;40.65;;;;;;;;;;5066081;28;20081;-62
2023/11/02 09:03:55;;;;;;;46.72;44.38;;;;;;;;;;5068072;28;20119;-68
2023/11/02 09:06:23;;;;;;;50.83;48.25;;;;;;;;;;5067034;28;20033;-62
2023/11/02 09:08:49;;;;;;;52.20;49.60;;;;;;;;;;5060998;28;20064;-68
2023/11/02 09:11:16;;;;;;;48.63;46.15;;;;;;;;;;5067414;28;20031;-69
2023/11/02 09:13:42;;;;;;;44.55;42.28;;;;;;;;;;5069302;28;20034;-62
2023/11/02 09:16:09;;;;;;;44.42;42.17;;;;;;;;;;5067345;28;20033;-68
2023/11/02 09:18:34;;;;;;;44.10;41.88;;;;;;;;;;5067848;28;20744;-68
2023/11/02 09:21:00;;;;;;;42.22;40.10;;;;;;;;;;5066063;28;20121;-67
2023/11/02 09:23:26;;;;;;;42.42;40.28;;;;;;;;;;5067292;28;20043;-65
2023/11/02 09:25:52;;;;;;;42.83;40.63;;;;;;;;;;5067002;28;20113;-68
2023/11/02 09:28:17;;;;;;;37.00;35.10;;;;;;;;;;5065719;28;20028;-67
2023/11/02 09:30:44;;;;;;;41.47;39.38;;;;;;;;;;5065278;28;20101;-62
2023/11/02 09:33:10;;;;;;;35.75;33.92;;;;;;;;;;5066240;28;20038;-68
2023/11/02 09:35:36;;;;;;;38.17;36.22;;;;;;;;;;5071215;28;20028;-62
2023/11/02 09:38:01;;;;;;;31.17;29.58;;;;;;;;;;5063023;28;20071;-62
2023/11/02 09:40:27;;;;;;;34.40;32.63;;;;;;;;;;5070300;28;20374;-61
2023/11/02 09:42:53;;;;;;;33.63;31.90;;;;;;;;;;5069417;28;20528;-62
2023/11/02 09:45:19;;;;;;;31.55;29.85;;;;;;;;;;5064464;28;20040;-61
2023/11/02 09:47:48;;;;;;;32.45;30.75;;;;;;;;;;5066048;28;20066;-68
2023/11/02 09:50:13;;;;;;;32.55;30.85;;;;;;;;;;5064322;28;20040;-67
2023/11/02 09:52:40;;;;;;;32.05;30.35;;;;;;;;;;5065030;28;20047;-67
2023/11/02 09:55:06;;;;;;;31.75;30.15;;;;;;;;;;5066066;28;20033;-68
2023/11/02 09:57:32;;;;;;;34.45;32.65;;;;;;;;;;5063552;28;20547;-63
2023/11/02 09:59:58;;;;;;;32.65;30.95;;;;;;;;;;5069613;28;20028;-62
2023/11/02 10:02:25;;;;;;;35.10;33.30;;;;;;;;;;5047812;28;20087;-68
2023/11/02 10:04:51;;;;;;;32.72;31.02;;;;;;;;;;5065777;28;20037;-62
2023/11/02 10:07:17;;;;;;;34.65;32.85;;;;;;;;;;5063477;28;20427;-61
2023/11/02 10:09:43;;;;;;;31.75;30.15;;;;;;;;;;5067296;28;20061;-62
2023/11/02 10:12:09;;;;;;;34.13;32.30;;;;;;;;;;5067184;28;20040;-61
2023/11/02 10:14:35;;;;;;;34.55;32.75;;;;;;;;;;5068381;28;20390;-61
2023/11/02 10:17:02;;;;;;;31.50;29.90;;;;;;;;;;5068024;28;20047;-62
2023/11/02 10:19:34;;;;;;;33.33;31.63;;;;;;;;;;5068315;28;20055;-68
2023/11/02 10:21:59;;;;;;;31.90;30.23;;;;;;;;;;5066857;28;20066;-68
2023/11/02 10:24:28;;;;;;;31.13;29.52;;;;;;;;;;5062905;28;20687;-67
2023/11/02 10:26:54;;;;;;;32.40;30.70;;;;;;;;;;5062070;28;20029;-68
2023/11/02 10:29:20;;;;;;;37.17;35.28;;;;;;;;;;5064803;28;20035;-67
2023/11/02 10:31:46;;;;;;;34.70;32.90;;;;;;;;;;5063676;28;20043;-67
2023/11/02 10:34:12;;;;;;;33.55;31.85;;;;;;;;;;5066193;28;20086;-68
2023/11/02 10:36:37;;;;;;;34.80;33.00;;;;;;;;;;5061764;28;20413;-62
2023/11/02 10:39:03;;;;;;;34.85;33.05;;;;;;;;;;5058025;28;20565;-62
2023/11/02 10:41:32;;;;;;;36.45;34.58;;;;;;;;;;5062750;28;20494;-61
2023/11/02 10:44:03;;;;;;;26.73;25.33;;;;;;;;;;5063189;28;20037;-61
2023/11/02 10:46:29;;;;;;;28.75;27.25;;;;;;;;;;5063932;28;20805;-62
2023/11/02 10:48:59;;;;;;;31.90;30.25;;;;;;;;;;5060850;28;20122;-65
2023/11/02 10:51:29;;;;;;;31.77;30.15;;;;;;;;;;5061691;28;20039;-67
2023/11/02 10:54:27;;;;;;;32.97;31.27;;;;;;;;;;5061887;28;20392;-68
2023/11/02 10:57:03;;;;;;;33.75;32.03;;;;;;;;;;5060138;28;20064;-61
2023/11/02 10:59:30;;;;;;;35.42;33.63;;;;;;;;;;5059342;28;20075;-64
2023/11/02 11:01:55;;;;;;;36.67;34.78;;;;;;;;;;5060218;28;20544;-66
2023/11/02 11:04:22;;;;;;;34.60;32.80;;;;;;;;;;5062456;28;20101;-61
2023/11/02 11:06:48;;;;;;;34.47;32.67;;;;;;;;;;5060193;28;20366;-60
2023/11/02 11:09:15;;;;;;;36.25;34.38;;;;;;;;;;5061448;28;20032;-67
2023/11/02 11:11:42;;;;;;;35.45;33.63;;;;;;;;;;5061549;28;20040;-67
2023/11/02 11:14:09;;;;;;;35.88;34.00;;;;;;;;;;5057397;28;20036;-67
2023/11/02 11:16:40;;;;;;;34.10;32.33;;;;;;;;;;5057301;28;20071;-61
2023/11/02 11:22:15;;;;;;;31.90;30.27;;;;;;;;;;5053414;28;19920;-66
2023/11/02 11:24:44;;;;;;;32.95;31.25;;;;;;;;;;5058672;28;20029;-67
2023/11/02 11:27:10;;;;;;;32.55;30.85;;;;;;;;;;5058523;28;20060;-65
2023/11/02 11:29:42;;;;;;;33.47;31.77;;;;;;;;;;5060164;28;20067;-67
2023/11/02 11:32:29;;;;;;;33.30;31.60;;;;;;;;;;5058244;28;20075;-66
2023/11/02 11:34:58;;;;;;;33.28;31.50;;;;;;;;;;5057035;28;20041;-63
2023/11/02 11:37:44;;;;;;;34.22;32.42;;;;;;;;;;5052137;28;20525;-62
2023/11/02 11:40:18;;;;;;;35.70;33.90;;;;;;;;;;5061204;28;20036;-66
2023/11/02 11:43:06;;;;;;;33.75;32.03;;;;;;;;;;5060153;28;20071;-66
2023/11/02 11:45:36;;;;;;;32.47;30.77;;;;;;;;;;5060202;28;20040;-67
2023/11/02 11:48:05;;;;;;;34.60;32.83;;;;;;;;;;5059684;28;20025;-66
2023/11/02 11:50:41;;;;;;;36.65;34.75;;;;;;;;;;5056582;28;20404;-67
2023/11/02 11:53:18;;;;;;;34.85;33.05;;;;;;;;;;5058170;28;20089;-64
2023/11/02 11:55:51;;;;;;;35.65;33.85;;;;;;;;;;5059286;28;20453;-65
2023/11/02 11:58:19;;;;;;;36.15;34.30;;;;;;;;;;5057214;28;20036;-65
2023/11/02 12:00:53;;;;;;;38.35;36.35;;;;;;;;;;5059974;28;20021;-66
2023/11/02 12:03:48;;;;;;;34.67;32.88;;;;;;;;;;5057359;28;20519;-65
2023/11/02 12:06:13;;;;;;;34.90;33.08;;;;;;;;;;5062271;28;20051;-66
2023/11/02 12:08:44;;;;;;;36.38;34.47;;;;;;;;;;5058982;28;20300;-67
2023/11/02 12:11:12;;;;;;;32.38;30.67;;;;;;;;;;5056595;28;21129;-66
2023/11/02 12:13:48;;;;;;;33.17;31.48;;;;;;;;;;5061407;28;20462;-61
2023/11/02 12:16:13;;;;;;;32.63;30.92;;;;;;;;;;5057400;28;20036;-61
2023/11/02 12:18:39;;;;;;;32.03;30.33;;;;;;;;;;5059567;28;20032;-62
2023/11/02 12:21:13;;;;;;;31.48;29.88;;;;;;;;;;5055907;28;20032;-68
2023/11/02 12:23:40;;;;;;;33.10;31.40;;;;;;;;;;5056807;28;20072;-64
2023/11/02 12:26:08;;;;;;;33.08;31.38;;;;;;;;;;5060045;28;20090;-66
2023/11/02 12:28:49;;;;;;;34.80;33.00;;;;;;;;;;5062792;28;20033;-67
2023/11/02 12:31:26;;;;;;;32.25;30.55;;;;;;;;;;5063100;28;20044;-68
2023/11/02 12:33:52;;;;;;;31.35;29.75;;;;;;;;;;5062992;28;20024;-66
2023/11/02 12:36:17;;;;;;;34.15;32.38;;;;;;;;;;5058616;28;20520;-64
2023/11/02 12:38:48;;;;;;;33.35;31.65;;;;;;;;;;5068986;28;20054;-69
2023/11/02 12:41:31;;;;;;;34.78;32.97;;;;;;;;;;5063043;28;20106;-67
2023/11/02 12:44:07;;;;;;;33.33;31.52;;;;;;;;;;5065370;28;20032;-66
2023/11/02 12:46:34;;;;;;;33.22;31.52;;;;;;;;;;5062986;28;20124;-62
2023/11/02 12:49:18;;;;;;;33.80;32.00;;;;;;;;;;5066423;28;20055;-66
2023/11/02 12:51:49;;;;;;;32.10;30.40;;;;;;;;;;5061959;28;20055;-62
2023/11/02 12:54:16;;;;;;;35.55;33.72;;;;;;;;;;5064342;28;20064;-62
2023/11/02 12:56:43;;;;;;;34.10;32.33;;;;;;;;;;5064994;28;20433;-62
2023/11/02 12:59:10;;;;;;;35.85;34.03;;;;;;;;;;5063839;28;20036;-66
2023/11/02 13:01:55;;;;;;;37.97;36.05;;;;;;;;;;5066404;28;20478;-67
2023/11/02 13:04:28;;;;;;;36.53;34.63;;;;;;;;;;5062980;28;20048;-69
2023/11/02 13:06:56;;;;;;;38.03;36.13;;;;;;;;;;5060441;28;20081;-62
2023/11/02 13:09:26;;;;;;;33.25;31.55;;;;;;;;;;5063613;28;20518;-62
2023/11/02 13:11:53;;;;;;;29.13;27.63;;;;;;;;;;5064866;28;20885;-67
2023/11/02 13:14:24;;;;;;;28.60;27.10;;;;;;;;;;5057975;28;20096;-61
2023/11/02 13:16:51;;;;;;;23.38;22.17;;;;;;;;;;5064478;28;20040;-62
2023/11/02 13:19:20;;;;;;;25.67;24.33;;;;;;;;;;5061562;28;20114;-62
2023/11/02 13:21:49;;;;;;;25.27;23.98;;;;;;;;;;5063637;28;20033;-63
2023/11/02 13:24:16;;;;;;;27.17;25.77;;;;;;;;;;5061805;28;20029;-62
2023/11/02 13:26:42;;;;;;;26.17;24.77;;;;;;;;;;5064905;28;20471;-61
2023/11/02 13:29:07;;;;;;;25.05;23.75;;;;;;;;;;5063031;28;20047;-61
2023/11/02 13:31:37;;;;;;;28.40;26.90;;;;;;;;;;5061393;28;20411;-68
2023/11/02 13:34:04;;;;;;;28.85;27.35;;;;;;;;;;5065047;28;20029;-65
2023/11/02 13:36:30;;;;;;;26.48;25.08;;;;;;;;;;5062770;28;20123;-65
2023/11/02 13:38:55;;;;;;;28.90;27.40;;;;;;;;;;5061627;28;20556;-65
2023/11/02 13:41:21;;;;;;;27.30;25.90;;;;;;;;;;5063824;28;20772;-66
2023/11/02 13:43:46;;;;;;;26.92;25.52;;;;;;;;;;5067999;28;20098;-66
2023/11/02 13:46:11;;;;;;;27.48;26.02;;;;;;;;;;5066676;28;20037;-62
2023/11/02 13:48:37;;;;;;;27.83;26.35;;;;;;;;;;5064391;28;20374;-62
2023/11/02 13:51:04;;;;;;;25.50;24.17;;;;;;;;;;5062271;28;20074;-63
2023/11/02 13:53:30;;;;;;;25.77;24.42;;;;;;;;;;5062114;28;20039;-67
2023/11/02 13:55:55;;;;;;;25.58;24.25;;;;;;;;;;5065660;28;20027;-62
2023/11/02 13:58:20;;;;;;;25.02;23.73;;;;;;;;;;5063928;28;20073;-62
2023/11/02 14:00:47;;;;;;;26.73;25.33;;;;;;;;;;5062394;28;20040;-63
2023/11/02 14:03:13;;;;;;;25.17;23.88;;;;;;;;;;5062917;28;20443;-62
2023/11/02 14:05:38;;;;;;;25.02;23.73;;;;;;;;;;5061750;28;20037;-62
2023/11/02 14:08:05;;;;;;;25.08;23.75;;;;;;;;;;5067614;28;20039;-67
2023/11/02 14:10:31;;;;;;;26.52;25.13;;;;;;;;;;5062199;28;20050;-63
2023/11/02 14:12:56;;;;;;;25.50;24.20;;;;;;;;;;5068333;28;20068;-67
2023/11/02 14:15:22;;;;;;;23.35;22.15;;;;;;;;;;5060559;28;20087;-67
2023/11/02 14:17:49;;;;;;;23.27;22.08;;;;;;;;;;5067216;28;20186;-66
2023/11/02 14:20:14;;;;;;;27.95;26.35;;;;;;;;;;5062169;28;20350;-61
2023/11/02 14:22:40;;;;;;;26.20;24.80;;;;;;;;;;5057568;28;20036;-63
2023/11/02 14:25:09;;;;;;;26.20;24.70;;;;;;;;;;5065283;28;20509;-62
2023/11/02 14:27:35;;;;;;;25.42;24.10;;;;;;;;;;5059860;28;20378;-62
2023/11/02 14:30:02;;;;;;;26.20;24.80;;;;;;;;;;5061586;28;20047;-62
2023/11/02 14:32:28;;;;;;;24.33;23.02;;;;;;;;;;5060614;28;20453;-64
2023/11/02 14:34:53;;;;;;;25.55;24.20;;;;;;;;;;5064124;28;20044;-63